Time;durP1;ratioP1;P1;durP2;ratioP2;P2;SDS_P1;SDS_P2;PMS_P1;PMS_P2;Temp;Humidity;BMP_temperature;BMP_pressure;BME280_temperature;BME280_humidity;BME280_pressure;Samples;Min_cycle;Max_cycle;Signal;HPM_P1;HPM_P2
2023/07/28 00:00:24;;;;;;;7.95;2.60;;;;;;;16.47;nan;100352.97;5018466;28;20041;-68
2023/07/28 00:02:49;;;;;;;7.53;2.70;;;;;;;16.41;nan;100347.91;5015604;28;20026;-69
2023/07/28 00:05:15;;;;;;;4.78;2.42;;;;;;;16.47;nan;100354.81;5016561;28;20505;-68
2023/07/28 00:07:40;;;;;;;4.55;2.30;;;;;;;16.45;nan;100363.06;5017427;28;20022;-69
2023/07/28 00:10:06;;;;;;;4.47;2.65;;;;;;;16.41;nan;100355.88;5015945;28;20035;-69
2023/07/28 00:12:31;;;;;;;4.60;2.20;;;;;;;16.47;nan;100365.44;5011960;28;20040;-71
2023/07/28 00:14:56;;;;;;;4.50;2.80;;;;;;;16.42;nan;100360.91;5016080;28;20052;-68
2023/07/28 00:17:22;;;;;;;4.28;2.40;;;;;;;16.43;nan;100367.06;5013409;28;20495;-71
2023/07/28 00:19:47;;;;;;;5.18;2.38;;;;;;;16.27;nan;100348.41;5016966;28;20495;-68
2023/07/28 00:22:12;;;;;;;7.65;2.30;;;;;;;16.33;nan;100362.53;5017562;28;20041;-69
2023/07/28 00:24:38;;;;;;;5.60;2.42;;;;;;;16.32;nan;100367.00;5016888;28;20029;-70
2023/07/28 00:27:04;;;;;;;5.45;2.35;;;;;;;16.31;nan;100367.28;5017656;28;20018;-71
2023/07/28 00:29:29;;;;;;;5.00;2.40;;;;;;;16.24;nan;100364.09;5013918;28;20057;-70
2023/07/28 00:31:55;;;;;;;6.43;2.60;;;;;;;16.06;nan;100363.50;5019076;28;20025;-71
2023/07/28 00:34:20;;;;;;;4.47;2.95;;;;;;;15.97;nan;100374.91;5028598;28;20033;-70
2023/07/28 00:36:46;;;;;;;6.93;3.28;;;;;;;15.70;nan;100362.59;5019435;28;20029;-70
2023/07/28 00:39:11;;;;;;;5.68;3.13;;;;;;;15.47;nan;100339.94;5021291;28;20023;-70
2023/07/28 00:41:36;;;;;;;5.72;3.50;;;;;;;15.58;nan;100362.00;5022211;28;20022;-70
2023/07/28 00:44:02;;;;;;;5.03;3.10;;;;;;;15.42;nan;100375.19;5019112;28;20116;-71
2023/07/28 00:46:27;;;;;;;5.63;3.05;;;;;;;15.23;nan;100366.06;5019816;28;20037;-71
2023/07/28 00:48:53;;;;;;;4.75;3.22;;;;;;;15.13;nan;100368.63;5020692;28;20036;-70
2023/07/28 00:51:19;;;;;;;3.67;2.97;;;;;;;15.06;nan;100367.03;5021405;28;20026;-70
2023/07/28 00:53:45;;;;;;;5.07;3.00;;;;;;;14.98;nan;100359.53;5018399;28;20021;-71
2023/07/28 00:56:11;;;;;;;6.00;3.20;;;;;;;15.03;nan;100374.69;5021648;28;20033;-70
2023/07/28 00:58:36;;;;;;;7.40;3.55;;;;;;;14.83;nan;100367.38;5011587;28;20018;-70
2023/07/28 01:01:02;;;;;;;7.00;3.25;;;;;;;14.83;nan;100370.81;5017343;28;20035;-71
2023/07/28 01:03:28;;;;;;;26.90;3.90;;;;;;;14.83;nan;100362.09;5017673;28;20029;-70
2023/07/28 01:06:27;;;;;;;4.28;3.08;;;;;;;14.93;nan;100383.38;5020497;28;20678;-69
2023/07/28 01:09:09;;;;;;;5.75;3.70;;;;;;;14.93;nan;100378.06;5021083;28;20033;-71
2023/07/28 01:11:35;;;;;;;7.60;3.40;;;;;;;14.92;nan;100381.78;5021307;28;20071;-71
2023/07/28 01:14:00;;;;;;;4.93;3.53;;;;;;;14.68;nan;100345.00;5020757;28;20029;-71
2023/07/28 01:16:26;;;;;;;5.78;3.63;;;;;;;14.64;nan;100346.56;5016536;28;20376;-70
2023/07/28 01:18:51;;;;;;;6.18;3.60;;;;;;;14.80;nan;100375.84;5018370;28;20034;-69
2023/07/28 01:21:21;;;;;;;6.72;3.72;;;;;;;14.82;nan;100379.03;5019622;28;20041;-69
2023/07/28 01:24:10;;;;;;;5.15;3.45;;;;;;;14.79;nan;100380.34;5018026;28;20021;-72
2023/07/28 01:26:36;;;;;;;8.45;3.97;;;;;;;14.66;nan;100368.31;5018402;28;20435;-71
2023/07/28 01:29:03;;;;;;;9.80;4.13;;;;;;;14.67;nan;100383.16;5018955;28;20057;-71
2023/07/28 01:31:29;;;;;;;5.57;3.83;;;;;;;14.67;nan;100385.78;5018857;28;20044;-72
2023/07/28 01:33:54;;;;;;;5.13;4.07;;;;;;;14.48;nan;100363.34;5018092;28;20034;-71
2023/07/28 01:36:20;;;;;;;8.15;4.55;;;;;;;14.37;nan;100366.97;5013989;28;20029;-70
2023/07/28 01:38:45;;;;;;;7.75;4.30;;;;;;;14.40;nan;100379.72;5016566;28;20025;-71
2023/07/28 01:41:10;;;;;;;10.40;4.25;;;;;;;14.07;nan;100340.97;5018518;28;20672;-70
2023/07/28 01:43:36;;;;;;;6.75;4.03;;;;;;;14.26;nan;100374.78;5017258;28;20033;-71
2023/07/28 01:46:01;;;;;;;6.75;4.32;;;;;;;14.26;nan;100379.31;5023419;28;20029;-69
2023/07/28 01:48:26;;;;;;;7.63;4.43;;;;;;;14.29;nan;100383.28;5018010;28;20029;-70
2023/07/28 01:50:52;;;;;;;5.88;4.43;;;;;;;14.34;nan;100396.59;5020443;28;20029;-71
2023/07/28 01:53:17;;;;;;;6.22;4.32;;;;;;;14.28;nan;100393.09;5016943;28;20033;-71
2023/07/28 01:55:43;;;;;;;7.50;4.47;;;;;;;14.25;nan;100385.66;5020037;28;20068;-72
2023/07/28 01:58:09;;;;;;;8.73;4.25;;;;;;;14.23;nan;100390.41;5018182;28;20104;-71
2023/07/28 02:00:35;;;;;;;6.57;4.28;;;;;;;14.21;nan;100388.00;5019795;28;20422;-71
2023/07/28 02:03:02;;;;;;;6.25;4.65;;;;;;;14.16;nan;100387.94;5015776;28;20104;-71
2023/07/28 02:05:28;;;;;;;11.38;4.75;;;;;;;14.17;nan;100386.09;5019157;28;20048;-71
2023/07/28 02:07:53;;;;;;;7.53;4.53;;;;;;;14.06;nan;100377.25;5018757;28;20030;-71
2023/07/28 02:10:19;;;;;;;10.23;4.53;;;;;;;14.06;nan;100377.25;5017254;28;20034;-72
2023/07/28 02:12:44;;;;;;;11.13;4.95;;;;;;;14.10;nan;100390.78;5018271;28;20029;-71
2023/07/28 02:15:10;;;;;;;7.60;4.50;;;;;;;14.04;nan;100382.78;5020495;28;20487;-72
2023/07/28 02:17:35;;;;;;;7.38;4.70;;;;;;;14.08;nan;100396.34;5016844;28;20033;-72
2023/07/28 02:20:03;;;;;;;5.95;4.47;;;;;;;13.99;nan;100385.38;5020173;28;20409;-70
2023/07/28 02:22:29;;;;;;;9.85;4.50;;;;;;;14.03;nan;100402.38;5019824;28;20115;-70
2023/07/28 02:24:54;;;;;;;9.70;4.97;;;;;;;13.96;nan;100388.53;5016755;28;20025;-70
2023/07/28 02:27:19;;;;;;;8.35;4.38;;;;;;;14.07;nan;100400.03;5019767;28;20472;-71
2023/07/28 02:29:45;;;;;;;7.78;4.45;;;;;;;14.02;nan;100398.09;5017310;28;20036;-70
2023/07/28 02:32:11;;;;;;;8.93;4.45;;;;;;;14.01;nan;100393.09;5016825;28;20030;-71
2023/07/28 02:34:36;;;;;;;8.65;4.53;;;;;;;14.02;nan;100389.38;5017622;28;20480;-70
2023/07/28 02:37:02;;;;;;;8.77;4.70;;;;;;;14.07;nan;100400.03;5019751;28;20021;-70
2023/07/28 02:39:28;;;;;;;6.20;4.80;;;;;;;14.04;nan;100397.88;5018011;28;20455;-70
2023/07/28 02:41:54;;;;;;;7.47;4.63;;;;;;;13.88;nan;100378.34;5017928;28;20102;-70
2023/07/28 02:44:19;;;;;;;7.63;4.60;;;;;;;13.86;nan;100379.66;5014627;28;20116;-70
2023/07/28 02:46:44;;;;;;;7.85;5.25;;;;;;;13.77;nan;100366.88;5019435;28;20025;-70
2023/07/28 02:49:10;;;;;;;10.10;5.00;;;;;;;13.83;nan;100380.94;5021555;28;20034;-71
2023/07/28 02:51:35;;;;;;;7.07;4.50;;;;;;;13.80;nan;100379.59;5017389;28;20041;-71
2023/07/28 02:54:01;;;;;;;9.52;4.68;;;;;;;13.90;nan;100386.06;5018780;28;20084;-71
2023/07/28 02:56:26;;;;;;;8.55;4.85;;;;;;;13.86;nan;100388.38;5017720;28;20426;-70
2023/07/28 02:58:52;;;;;;;7.15;4.95;;;;;;;13.84;nan;100377.28;5015616;28;20116;-72
2023/07/28 03:01:17;;;;;;;6.82;4.38;;;;;;;13.83;nan;100387.03;5016857;28;20099;-71
2023/07/28 03:03:43;;;;;;;7.25;4.50;;;;;;;13.59;nan;100370.59;5014398;28;20104;-71
2023/07/28 03:06:09;;;;;;;8.65;4.47;;;;;;;13.40;nan;100358.72;5016804;28;20030;-71
2023/07/28 03:08:34;;;;;;;11.43;5.00;;;;;;;13.49;nan;100380.25;5019430;28;20087;-71
2023/07/28 03:11:02;;;;;;;9.45;4.95;;;;;;;13.34;nan;100367.63;5016529;28;20116;-71
2023/07/28 03:13:28;;;;;;;8.05;4.60;;;;;;;13.38;nan;100388.06;5017945;28;20048;-71
2023/07/28 03:15:53;;;;;;;7.80;4.63;;;;;;;13.12;nan;100370.19;5018472;28;20120;-71
2023/07/28 03:18:19;;;;;;;7.75;4.38;;;;;;;13.16;nan;100374.75;5015252;28;20140;-71
2023/07/28 03:20:45;;;;;;;8.65;4.68;;;;;;;13.09;nan;100382.03;5021100;28;20026;-71
2023/07/28 03:23:10;;;;;;;6.65;4.38;;;;;;;13.04;nan;100387.25;5016160;28;20026;-71
2023/07/28 03:25:36;;;;;;;8.13;4.85;;;;;;;13.04;nan;100397.03;5014329;28;20033;-70
2023/07/28 03:28:01;;;;;;;7.78;4.80;;;;;;;13.01;nan;100393.03;5017212;28;20021;-71
2023/07/28 03:30:27;;;;;;;8.40;4.53;;;;;;;12.80;nan;100364.69;5018494;28;20055;-70
2023/07/28 03:32:52;;;;;;;7.15;4.55;;;;;;;12.93;nan;100393.44;5033173;28;20120;-70
2023/07/28 03:35:17;;;;;;;9.35;4.70;;;;;;;12.85;nan;100391.97;5013281;28;20026;-70
2023/07/28 03:37:43;;;;;;;8.10;4.68;;;;;;;12.93;nan;100396.09;5015547;28;20108;-70
2023/07/28 03:40:08;;;;;;;8.77;4.80;;;;;;;13.01;nan;100408.88;5018169;28;20044;-70
2023/07/28 03:42:34;;;;;;;7.07;4.18;;;;;;;12.97;nan;100402.47;5015149;28;20459;-69
2023/07/28 03:44:59;;;;;;;9.02;4.80;;;;;;;13.03;nan;100419.22;5015214;28;20108;-70
2023/07/28 03:47:25;;;;;;;9.68;4.45;;;;;;;12.92;nan;100405.03;5015397;28;20033;-71
2023/07/28 03:49:50;;;;;;;8.30;4.32;;;;;;;12.99;nan;100411.75;5013946;28;20021;-71
2023/07/28 03:52:15;;;;;;;11.57;4.30;;;;;;;13.04;nan;100412.91;5016289;28;20026;-71
2023/07/28 03:54:41;;;;;;;9.57;4.90;;;;;;;13.02;nan;100412.31;5004628;28;20050;-70
2023/07/28 03:57:06;;;;;;;17.17;5.32;;;;;;;13.02;nan;100404.41;5014594;28;20037;-69
2023/07/28 03:59:32;;;;;;;16.52;5.10;;;;;;;13.18;nan;100420.25;5016477;28;20037;-67
2023/07/28 04:01:58;;;;;;;9.48;5.53;;;;;;;13.21;nan;100434.84;5016823;28;20036;-70
2023/07/28 04:04:23;;;;;;;15.82;5.45;;;;;;;13.18;nan;100432.69;5014252;28;20033;-68
2023/07/28 04:06:55;;;;;;;10.40;4.38;;;;;;;13.10;nan;100415.38;5013664;28;20028;-71
2023/07/28 04:09:21;;;;;;;8.80;4.30;;;;;;;13.26;nan;100437.56;5011977;28;20038;-70
2023/07/28 04:11:46;;;;;;;12.05;4.95;;;;;;;13.30;nan;100429.97;5013478;28;20034;-70
2023/07/28 04:14:12;;;;;;;11.40;4.88;;;;;;;13.33;nan;100419.72;5019143;28;20052;-69
2023/07/28 04:16:38;;;;;;;9.52;4.53;;;;;;;13.05;nan;100375.66;5017141;28;20428;-71
2023/07/28 04:19:04;;;;;;;11.10;4.18;;;;;;;13.24;nan;100412.41;5014386;28;20033;-70
2023/07/28 04:21:29;;;;;;;13.27;4.53;;;;;;;13.19;nan;100405.19;5014150;28;20506;-70
2023/07/28 04:23:55;;;;;;;13.80;4.30;;;;;;;13.22;nan;100412.66;5020728;28;20025;-70
2023/07/28 04:26:22;;;;;;;19.02;5.35;;;;;;;13.35;nan;100419.47;5011739;28;20068;-69
2023/07/28 04:28:47;;;;;;;15.65;4.70;;;;;;;13.25;nan;100400.78;5016503;28;20585;-70
2023/07/28 04:31:13;;;;;;;11.52;4.28;;;;;;;13.37;nan;100409.47;5020129;28;20109;-69
2023/07/28 04:33:41;;;;;;;9.10;4.45;;;;;;;13.21;nan;100400.47;5015505;28;20030;-69
2023/07/28 04:36:07;;;;;;;10.85;4.22;;;;;;;13.18;nan;100391.16;5013875;28;20067;-71
2023/07/28 04:38:32;;;;;;;8.10;4.63;;;;;;;13.32;nan;100402.25;5012063;28;20025;-70
2023/07/28 04:40:58;;;;;;;11.50;4.55;;;;;;;13.34;nan;100399.38;5015242;28;20438;-70
2023/07/28 04:43:23;;;;;;;12.00;4.10;;;;;;;13.51;nan;100420.50;5018285;28;20036;-70
2023/07/28 04:45:48;;;;;;;10.32;4.75;;;;;;;13.48;nan;100405.09;5016945;28;20022;-68
2023/07/28 04:48:14;;;;;;;10.18;4.53;;;;;;;13.72;nan;100429.50;5016751;28;20499;-72
2023/07/28 04:50:39;;;;;;;8.38;4.10;;;;;;;13.78;nan;100424.03;5016257;28;20072;-69
2023/07/28 04:53:04;;;;;;;11.10;4.22;;;;;;;13.94;nan;100437.47;5016815;28;20831;-70
2023/07/28 04:55:30;;;;;;;11.82;3.95;;;;;;;14.05;nan;100439.19;5013645;28;20030;-71
2023/07/28 04:57:56;;;;;;;8.75;4.18;;;;;;;14.15;nan;100441.16;5015096;28;20025;-71
2023/07/28 05:00:22;;;;;;;11.68;4.28;;;;;;;14.14;nan;100424.47;5014912;28;20083;-69
2023/07/28 05:02:48;;;;;;;9.82;4.18;;;;;;;14.14;nan;100405.13;5014987;28;20040;-72
2023/07/28 05:05:13;;;;;;;7.55;3.60;;;;;;;14.39;nan;100420.47;5012008;28;20018;-70
2023/07/28 05:07:38;;;;;;;9.68;3.70;;;;;;;14.55;nan;100430.22;5014406;28;20084;-71
2023/07/28 05:10:04;;;;;;;7.85;3.97;;;;;;;14.70;nan;100428.75;5015126;28;20033;-71
2023/07/28 05:12:30;;;;;;;7.32;3.78;;;;;;;14.85;nan;100428.91;5018473;28;20021;-71
2023/07/28 05:14:56;;;;;;;5.47;3.80;;;;;;;14.81;nan;100409.25;5015121;28;20112;-72
2023/07/28 05:17:21;;;;;;;26.63;5.53;;;;;;;;;;5015575;28;20053;-68
2023/07/28 05:19:46;;;;;;;10.13;4.27;;;;;;;;;;5017247;28;20091;-71
2023/07/28 05:22:12;;;;;;;14.82;4.13;;;;;;;15.21;nan;100426.53;5013603;28;20290;-70
2023/07/28 05:24:37;;;;;;;8.65;3.88;;;;;;;;;;5022100;28;20581;-68
2023/07/28 05:27:02;;;;;;;6.70;3.83;;;;;;;15.48;nan;100435.19;5015263;28;20025;-70
2023/07/28 05:29:28;;;;;;;13.93;3.80;;;;;;;15.54;nan;100430.72;5018693;28;20033;-71
2023/07/28 05:31:53;;;;;;;8.95;3.97;;;;;;;15.53;nan;100421.94;5015107;28;20029;-70
2023/07/28 05:34:18;;;;;;;11.00;4.35;;;;;;;15.70;nan;100429.75;5018208;28;20061;-67
2023/07/28 05:36:44;;;;;;;8.20;3.88;;;;;;;15.92;nan;100453.53;5014555;28;20034;-70
2023/07/28 05:39:10;;;;;;;14.60;4.10;;;;;;;15.99;nan;100444.50;5015372;28;20029;-71
2023/07/28 05:41:37;;;;;;;14.30;4.25;;;;;;;16.07;nan;100430.75;5019395;28;20021;-71
2023/07/28 05:44:03;;;;;;;6.70;3.85;;;;;;;16.11;nan;100419.34;5015504;28;20053;-70
2023/07/28 05:46:28;;;;;;;9.15;4.10;;;;;;;16.29;nan;100438.50;5017683;28;20060;-70
2023/07/28 05:48:55;;;;;;;7.68;3.88;;;;;;;16.26;nan;100418.56;5019300;28;20125;-67
2023/07/28 05:51:21;;;;;;;5.90;3.88;;;;;;;16.36;nan;100410.63;5029310;28;20029;-69
2023/07/28 05:53:47;;;;;;;7.45;4.18;;;;;;;16.39;nan;100414.59;5020088;28;20463;-69
2023/07/28 05:56:12;;;;;;;7.82;3.90;;;;;;;16.45;nan;100416.22;5022621;28;20648;-69
2023/07/28 05:58:38;;;;;;;7.10;3.63;;;;;;;16.54;nan;100429.78;5017403;28;20431;-72
2023/07/28 06:01:03;;;;;;;11.50;4.20;;;;;;;16.66;nan;100427.66;5016610;28;20022;-71
2023/07/28 06:03:29;;;;;;;6.93;3.92;;;;;;;16.67;nan;100421.28;5022159;28;20100;-70
2023/07/28 06:05:54;;;;;;;12.13;3.92;;;;;;;16.77;nan;100415.19;5017181;28;20079;-71
2023/07/28 06:08:20;;;;;;;9.10;3.97;;;;;;;16.85;nan;100419.19;5021969;28;20040;-71
2023/07/28 06:10:45;;;;;;;6.82;3.60;;;;;;;16.93;nan;100426.66;5016312;28;20480;-71
2023/07/28 06:13:10;;;;;;;6.28;3.75;;;;;;;17.09;nan;100430.88;5017856;28;20068;-72
2023/07/28 06:15:39;;;;;;;9.35;4.05;;;;;;;17.11;nan;100412.00;5014770;28;20025;-72
2023/07/28 06:18:04;;;;;;;4.70;3.27;;;;;;;17.31;nan;100430.63;5015240;28;20105;-73
2023/07/28 06:20:30;;;;;;;6.78;3.67;;;;;;;17.38;nan;100427.66;5016626;28;20101;-73
2023/07/28 06:22:55;;;;;;;8.07;3.58;;;;;;;17.55;nan;100433.50;5017569;28;20049;-74
2023/07/28 06:25:20;;;;;;;7.38;3.08;;;;;;;17.64;nan;100431.84;5015704;28;20101;-74
2023/07/28 06:27:46;;;;;;;6.75;3.25;;;;;;;17.74;nan;100431.03;5018231;28;20633;-73
2023/07/28 06:30:12;;;;;;;7.88;3.33;;;;;;;17.91;nan;100444.06;5017020;28;20041;-74
2023/07/28 06:32:37;;;;;;;8.05;3.45;;;;;;;17.90;nan;100417.69;5015883;28;20533;-74
2023/07/28 06:35:03;;;;;;;3.90;3.17;;;;;;;18.05;nan;100434.41;5015126;28;20042;-73
2023/07/28 06:37:28;;;;;;;10.68;3.25;;;;;;;18.16;nan;100424.50;5024726;28;20514;-74
2023/07/28 06:39:55;;;;;;;8.05;3.28;;;;;;;18.21;nan;100421.78;5018661;28;20091;-74
2023/07/28 06:42:23;;;;;;;9.65;3.38;;;;;;;18.31;nan;100420.16;5014306;28;20034;-74
2023/07/28 06:44:52;;;;;;;4.63;3.35;;;;;;;18.43;nan;100417.94;5022999;28;20552;-75
2023/07/28 06:47:18;;;;;;;6.07;2.93;;;;;;;18.54;nan;100421.34;5017435;28;20030;-73
2023/07/28 06:49:44;;;;;;;6.50;3.25;;;;;;;18.67;nan;100445.50;5017773;28;20279;-73
2023/07/28 06:52:09;;;;;;;5.20;2.83;;;;;;;18.78;nan;100443.59;5015365;28;20437;-73
2023/07/28 06:54:35;;;;;;;5.13;3.00;;;;;;;18.87;nan;100436.59;5016629;28;20059;-72
2023/07/28 06:57:00;;;;;;;6.65;2.63;;;;;;;19.08;nan;100447.09;5016872;28;20124;-73
2023/07/28 06:59:26;;;;;;;6.90;2.35;;;;;;;19.11;nan;100425.97;5012625;28;20057;-69
2023/07/28 07:01:51;;;;;;;5.32;2.72;;;;;;;19.27;nan;100431.94;5023110;28;20029;-72
2023/07/28 07:04:17;;;;;;;4.53;2.70;;;;;;;19.33;nan;100408.69;5014699;28;20061;-74
2023/07/28 07:06:43;;;;;;;4.72;2.60;;;;;;;19.49;nan;100422.66;5020192;28;20036;-74
2023/07/28 07:09:08;;;;;;;4.70;2.58;;;;;;;19.55;nan;100418.84;5018872;28;20420;-73
2023/07/28 07:11:34;;;;;;;5.55;2.20;;;;;;;19.74;nan;100429.63;5016782;28;20088;-75
2023/07/28 07:13:59;;;;;;;2.55;2.00;;;;;;;19.84;nan;100412.69;5018532;28;20433;-74
2023/07/28 07:16:24;;;;;;;3.28;2.20;;;;;;;19.89;nan;100404.59;5015737;28;20033;-73
2023/07/28 07:18:51;;;;;;;4.88;2.28;;;;;;;20.10;nan;100424.63;5014351;28;20025;-72
2023/07/28 07:21:16;;;;;;;2.97;2.20;;;;;;;20.16;nan;100423.50;5017568;28;20440;-68
2023/07/28 07:23:42;;;;;;;2.80;1.80;;;;;;;20.25;nan;100407.56;5014458;28;20028;-68
2023/07/28 07:26:07;;;;;;;4.35;2.30;;;;;;;20.34;nan;100407.72;5016013;28;20022;-72
2023/07/28 07:28:35;;;;;;;6.88;2.20;;;;;;;20.36;nan;100398.34;5018942;28;20030;-71
2023/07/28 07:31:01;;;;;;;2.10;1.90;;;;;;;20.47;nan;100399.00;5016916;28;20028;-69
2023/07/28 07:33:27;;;;;;;3.50;2.13;;;;;;;20.60;nan;100410.84;5021032;28;20034;-69
2023/07/28 07:35:53;;;;;;;4.95;1.90;;;;;;;20.77;nan;100419.13;5017077;28;20087;-68
2023/07/28 07:38:18;;;;;;;5.53;2.25;;;;;;;20.80;nan;100417.75;5015332;28;20018;-73
2023/07/28 07:40:46;;;;;;;3.50;1.95;;;;;;;20.93;nan;100421.56;5031604;28;20029;-73
2023/07/28 07:43:18;;;;;;;3.08;1.63;;;;;;;21.01;nan;100419.00;5015279;28;20032;-72
2023/07/28 07:45:43;;;;;;;4.65;1.95;;;;;;;20.94;nan;100399.06;5018145;28;20033;-73
2023/07/28 07:48:09;;;;;;;5.03;1.90;;;;;;;21.07;nan;100411.69;5015898;28;20075;-72
2023/07/28 07:50:34;;;;;;;1.67;1.45;;;;;;;21.21;nan;100417.03;5014972;28;20018;-71
2023/07/28 07:53:00;;;;;;;3.17;1.90;;;;;;;21.31;nan;100413.38;5017995;28;20863;-73
2023/07/28 07:55:25;;;;;;;4.70;1.70;;;;;;;21.27;nan;100396.34;5014751;28;20038;-73
2023/07/28 07:57:50;;;;;;;3.85;1.70;;;;;;;21.49;nan;100425.16;5014650;28;20542;-72
2023/07/28 08:00:16;;;;;;;5.45;1.85;;;;;;;21.51;nan;100415.72;5015210;28;20045;-72
2023/07/28 08:02:41;;;;;;;4.00;1.70;;;;;;;21.66;nan;100428.03;5014388;28;20064;-72
2023/07/28 08:05:07;;;;;;;3.08;1.65;;;;;;;21.73;nan;100425.75;5016273;28;20022;-72
2023/07/28 08:07:33;;;;;;;2.88;1.70;;;;;;;21.84;nan;100434.38;5015590;28;20033;-71
2023/07/28 08:09:58;;;;;;;3.13;1.63;;;;;;;21.92;nan;100435.56;5018333;28;20029;-74
2023/07/28 08:12:24;;;;;;;2.88;1.65;;;;;;;21.91;nan;100417.88;5016814;28;20030;-71
2023/07/28 08:14:49;;;;;;;3.00;1.80;;;;;;;22.03;nan;100426.22;5014930;28;20064;-73
2023/07/28 08:17:15;;;;;;;4.38;1.80;;;;;;;22.03;nan;100418.16;5014433;28;20140;-72
2023/07/28 08:19:40;;;;;;;3.58;1.60;;;;;;;22.16;nan;100428.06;5014850;28;20088;-73
2023/07/28 08:22:06;;;;;;;3.45;1.67;;;;;;;22.16;nan;100416.53;5016613;28;20050;-68
2023/07/28 08:24:32;;;;;;;4.20;1.65;;;;;;;22.25;nan;100418.22;5016053;28;20029;-72
2023/07/28 08:26:57;;;;;;;2.65;1.85;;;;;;;22.34;nan;100423.69;5015389;28;20032;-71
2023/07/28 08:29:22;;;;;;;5.10;1.63;;;;;;;22.40;nan;100417.09;5014305;28;20038;-72
2023/07/28 08:31:48;;;;;;;2.25;1.60;;;;;;;22.29;nan;100387.03;5013455;28;20498;-72
2023/07/28 08:34:13;;;;;;;4.13;1.55;;;;;;;22.50;nan;100411.47;5021061;28;20120;-73
2023/07/28 08:36:39;;;;;;;2.15;1.80;;;;;;;22.56;nan;100409.47;5013005;28;20026;-72
2023/07/28 08:39:05;;;;;;;2.88;1.85;;;;;;;22.70;nan;100418.28;5016118;28;20029;-71
2023/07/28 08:41:30;;;;;;;4.03;1.85;;;;;;;22.73;nan;100398.06;5016310;28;20036;-70
2023/07/28 08:43:56;;;;;;;6.13;2.05;;;;;;;22.77;nan;100400.91;5015358;28;20075;-70
2023/07/28 08:46:21;;;;;;;2.33;1.80;;;;;;;22.91;nan;100401.63;5019182;28;20075;-72
2023/07/28 08:48:47;;;;;;;4.03;2.13;;;;;;;22.92;nan;100393.28;5013273;28;20030;-67
2023/07/28 08:51:13;;;;;;;3.95;2.05;;;;;;;22.96;nan;100392.66;5013065;28;20087;-68
2023/07/28 08:53:39;;;;;;;8.65;2.25;;;;;;;23.17;nan;100401.81;5017851;28;20053;-68
2023/07/28 08:56:05;;;;;;;3.60;2.20;;;;;;;23.24;nan;100404.84;5015322;28;20034;-68
2023/07/28 08:58:31;;;;;;;5.55;2.15;;;;;;;23.28;nan;100399.66;5014107;28;20022;-72
2023/07/28 09:01:00;;;;;;;6.18;2.55;;;;;;;23.34;nan;100403.75;5011228;28;20534;-71
2023/07/28 09:03:27;;;;;;;5.93;2.25;;;;;;;23.37;nan;100395.09;5014598;28;20032;-71
2023/07/28 09:06:00;;;;;;;5.05;2.20;;;;;;;23.29;nan;100380.50;5020632;28;20108;-71
2023/07/28 09:08:26;;;;;;;4.15;2.10;;;;;;;23.35;nan;100386.56;5015688;28;20034;-71
2023/07/28 09:10:51;;;;;;;2.63;1.90;;;;;;;23.37;nan;100376.28;5013453;28;20068;-72
2023/07/28 09:13:18;;;;;;;3.35;2.17;;;;;;;23.51;nan;100378.84;5016830;28;20059;-73
2023/07/28 09:15:44;;;;;;;4.47;2.10;;;;;;;23.55;nan;100369.84;5013135;28;20045;-72
2023/07/28 09:18:17;;;;;;;5.50;2.40;;;;;;;23.62;nan;100361.31;5023464;28;20506;-73
2023/07/28 09:20:43;;;;;;;5.72;2.10;;;;;;;23.62;nan;100345.19;5013630;28;20029;-73
2023/07/28 09:23:10;;;;;;;3.28;2.15;;;;;;;23.73;nan;100354.59;5022694;28;20052;-72
2023/07/28 09:25:37;;;;;;;3.40;2.30;;;;;;;23.86;nan;100374.38;5020600;28;20053;-72
2023/07/28 09:28:02;;;;;;;3.22;2.10;;;;;;;23.87;nan;100361.69;5018547;28;20041;-71
2023/07/28 09:30:43;;;;;;;2.78;2.10;;;;;;;23.92;nan;100361.53;5015864;28;20057;-72
2023/07/28 09:33:09;;;;;;;3.50;2.10;;;;;;;23.92;nan;100354.28;5019090;28;20022;-72
2023/07/28 09:35:34;;;;;;;3.65;2.20;;;;;;;24.02;nan;100358.56;5017368;28;20083;-72
2023/07/28 09:38:00;;;;;;;5.15;2.10;;;;;;;24.11;nan;100363.94;5017354;28;20057;-73
2023/07/28 09:40:27;;;;;;;2.38;2.10;;;;;;;24.16;nan;100369.97;5016634;28;20044;-71
2023/07/28 09:42:54;;;;;;;2.38;2.17;;;;;;;24.18;nan;100362.38;5020787;28;20022;-73
2023/07/28 09:45:22;;;;;;;5.07;2.10;;;;;;;24.32;nan;100372.16;5015808;28;20483;-73
2023/07/28 09:47:53;;;;;;;2.45;2.25;;;;;;;24.36;nan;100365.03;5018633;28;20084;-72
2023/07/28 09:50:23;;;;;;;4.43;2.38;;;;;;;24.37;nan;100359.34;5018279;28;20037;-71
2023/07/28 09:52:53;;;;;;;3.15;2.40;;;;;;;24.41;nan;100354.09;5019361;28;20657;-69
2023/07/28 09:55:19;;;;;;;3.85;2.25;;;;;;;24.44;nan;100350.75;5024676;28;20745;-67
2023/07/28 09:57:57;;;;;;;2.40;2.20;;;;;;;24.46;nan;100334.31;5024329;28;20095;-69
2023/07/28 10:00:23;;;;;;;4.65;2.25;;;;;;;24.38;nan;100317.84;5017650;28;20603;-68
2023/07/28 10:02:50;;;;;;;2.78;2.10;;;;;;;24.59;nan;100347.63;5015537;28;20029;-69
2023/07/28 10:05:16;;;;;;;3.38;1.70;;;;;;;24.59;nan;100336.84;5017007;28;20112;-69
2023/07/28 10:07:43;;;;;;;2.95;2.00;;;;;;;24.63;nan;100339.66;5018159;28;20480;-69
2023/07/28 10:10:12;;;;;;;2.10;1.80;;;;;;;24.69;nan;100333.00;5017811;28;20018;-69
2023/07/28 10:12:46;;;;;;;2.90;1.70;;;;;;;24.89;nan;100333.44;5016363;28;20235;-68
2023/07/28 10:15:17;;;;;;;2.42;1.85;;;;;;;24.92;nan;100332.78;5018118;28;20693;-69
2023/07/28 10:18:00;;;;;;;3.63;2.10;;;;;;;24.95;nan;100332.13;5020500;28;20396;-69
2023/07/28 10:20:41;;;;;;;2.30;1.92;;;;;;;24.91;nan;100323.91;5017026;28;20041;-69
2023/07/28 10:23:07;;;;;;;2.80;2.10;;;;;;;25.08;nan;100333.81;5017312;28;20407;-70
2023/07/28 10:25:35;;;;;;;2.50;2.15;;;;;;;25.17;nan;100331.91;5016031;28;20025;-68
2023/07/28 10:28:02;;;;;;;4.43;2.03;;;;;;;25.20;nan;100319.69;5016103;28;20080;-69
2023/07/28 10:30:27;;;;;;;2.50;2.20;;;;;;;25.31;nan;100329.00;5020966;28;20447;-73
2023/07/28 10:32:55;;;;;;;4.78;1.83;;;;;;;25.36;nan;100325.31;5013852;28;20064;-71
2023/07/28 10:35:25;;;;;;;4.90;1.92;;;;;;;25.48;nan;100330.78;5016829;28;20030;-72
2023/07/28 10:37:50;;;;;;;2.17;1.92;;;;;;;25.46;nan;100322.22;5015686;28;20056;-68
2023/07/28 10:40:28;;;;;;;2.10;1.70;;;;;;;25.54;nan;100318.69;5021238;28;20091;-72
2023/07/28 10:42:54;;;;;;;2.05;1.77;;;;;;;25.58;nan;100322.31;5015765;28;20029;-73
2023/07/28 10:45:22;;;;;;;5.57;1.92;;;;;;;25.66;nan;100324.16;5017947;28;20057;-72
2023/07/28 10:47:48;;;;;;;2.70;1.77;;;;;;;25.75;nan;100324.09;5016245;28;20407;-69
2023/07/28 10:50:14;;;;;;;3.08;2.10;;;;;;;25.79;nan;100310.75;5017742;28;20021;-68
2023/07/28 10:52:40;;;;;;;8.13;1.85;;;;;;;25.88;nan;100320.38;5016210;28;20608;-67
2023/07/28 10:55:18;;;;;;;2.40;1.80;;;;;;;25.88;nan;100317.69;5015706;28;20695;-68
2023/07/28 10:57:45;;;;;;;3.58;1.98;;;;;;;25.89;nan;100303.06;5017037;28;20108;-67
2023/07/28 11:00:12;;;;;;;3.50;1.90;;;;;;;25.97;nan;100311.41;5017190;28;20022;-70
2023/07/28 11:02:42;;;;;;;2.33;1.98;;;;;;;26.00;nan;100324.22;5016102;28;20033;-68
2023/07/28 11:05:12;;;;;;;2.60;1.90;;;;;;;25.99;nan;100312.66;5015240;28;20044;-69
2023/07/28 11:07:38;;;;;;;3.03;1.80;;;;;;;26.01;nan;100302.31;5018496;28;20022;-68
2023/07/28 11:10:06;;;;;;;2.47;2.08;;;;;;;26.05;nan;100311.34;5012572;28;20124;-70
2023/07/28 11:12:32;;;;;;;2.05;1.70;;;;;;;26.18;nan;100312.16;5010692;28;20503;-69
2023/07/28 11:14:58;;;;;;;4.43;1.80;;;;;;;26.19;nan;100304.84;5009617;28;20402;-69
2023/07/28 11:17:24;;;;;;;2.75;1.95;;;;;;;26.26;nan;100302.41;5010868;28;20029;-70
2023/07/28 11:19:49;;;;;;;2.00;1.60;;;;;;;26.24;nan;100283.88;5013481;28;20035;-70
2023/07/28 11:22:17;;;;;;;2.22;2.00;;;;;;;26.40;nan;100294.00;5016457;28;20041;-70
2023/07/28 11:24:42;;;;;;;2.08;1.88;;;;;;;26.44;nan;100290.31;5017699;28;20029;-72
2023/07/28 11:27:08;;;;;;;2.55;1.75;;;;;;;26.42;nan;100287.16;5018490;28;20072;-73
2023/07/28 11:29:33;;;;;;;3.08;1.95;;;;;;;26.50;nan;100310.56;5015385;28;20025;-74
2023/07/28 11:32:00;;;;;;;3.58;1.58;;;;;;;26.45;nan;100291.09;5015394;28;20025;-72
2023/07/28 11:34:25;;;;;;;2.22;1.75;;;;;;;26.49;nan;100306.28;5017178;28;20025;-72
2023/07/28 11:36:51;;;;;;;2.60;2.05;;;;;;;26.47;nan;100295.03;5015910;28;20036;-71